KIRK

Kirksville Regional Airport

Kirksville, Missouri, USA
METAR KIRK 151555Z AUTO 03006KT 10SM CLR 03/M02 A3018 RMK AO2 SLP233 T00331022
Observed Flight Rules
Dec-15 @ 15:55 UTC (34 minutes ago) Visual Flight Rules
Wind Visibility Clouds
30° at 6 knots 10 miles
  • Clear skies
Temperatures Readings
Current 3°C / 37°F
Dewpoint -2°C / 28°F
Humidity 70%
Altimeter 30.18" Hg
Pressure 1023.3 hPa
Elevation 293
METAR KIRK 151555Z AUTO 03006KT 10SM CLR 03/M02 A3018 RMK AO2 SLP233 T00331022
Observed Flight Rules
Dec-15 @ 15:55 UTC
(34 minutes ago)
VFR
Wind Visibility
30° at 6 knots 10 miles
Clouds
  • Clear skies
Temperature Dewpoint
3°C / 37°F -2°C / 28°F
Humidity Altimeter Pressure
70% 30.18" Hg 1023.3 hPa